sensor_id;sensor_type;location;lat;lon;timestamp;P1;durP1;ratioP1;P2;durP2;ratioP2
56657;SDS011;42530;52.240;19.354;2022-10-15T00:00:27;63.33;;;53.15;;
56657;SDS011;42530;52.240;19.354;2022-10-15T00:02:52;61.92;;;54.35;;
56657;SDS011;42530;52.240;19.354;2022-10-15T00:05:18;75.43;;;56.95;;
56657;SDS011;42530;52.240;19.354;2022-10-15T00:07:44;58.97;;;49.83;;
56657;SDS011;42530;52.240;19.354;2022-10-15T00:10:10;58.65;;;52.03;;
56657;SDS011;42530;52.240;19.354;2022-10-15T00:12:35;58.03;;;51.05;;
56657;SDS011;42530;52.240;19.354;2022-10-15T00:15:02;59.35;;;51.70;;
56657;SDS011;42530;52.240;19.354;2022-10-15T00:17:29;60.55;;;54.10;;
56657;SDS011;42530;52.240;19.354;2022-10-15T00:19:55;69.95;;;52.67;;
56657;SDS011;42530;52.240;19.354;2022-10-15T00:22:21;60.22;;;53.25;;
56657;SDS011;42530;52.240;19.354;2022-10-15T00:24:47;63.13;;;55.35;;
56657;SDS011;42530;52.240;19.354;2022-10-15T00:27:12;58.92;;;49.92;;
56657;SDS011;42530;52.240;19.354;2022-10-15T00:29:38;57.80;;;51.15;;
56657;SDS011;42530;52.240;19.354;2022-10-15T00:32:03;69.57;;;52.20;;
56657;SDS011;42530;52.240;19.354;2022-10-15T00:34:29;57.25;;;51.10;;
56657;SDS011;42530;52.240;19.354;2022-10-15T00:36:55;62.28;;;52.63;;
56657;SDS011;42530;52.240;19.354;2022-10-15T00:39:20;55.42;;;49.47;;
56657;SDS011;42530;52.240;19.354;2022-10-15T00:41:46;59.38;;;52.17;;
56657;SDS011;42530;52.240;19.354;2022-10-15T00:46:53;61.95;;;52.40;;
56657;SDS011;42530;52.240;19.354;2022-10-15T00:49:36;62.13;;;52.03;;
56657;SDS011;42530;52.240;19.354;2022-10-15T00:53:26;61.00;;;53.00;;
56657;SDS011;42530;52.240;19.354;2022-10-15T00:57:43;62.78;;;52.95;;
56657;SDS011;42530;52.240;19.354;2022-10-15T01:00:11;63.97;;;52.65;;
56657;SDS011;42530;52.240;19.354;2022-10-15T01:02:39;63.55;;;56.85;;
56657;SDS011;42530;52.240;19.354;2022-10-15T01:05:06;62.03;;;53.33;;
56657;SDS011;42530;52.240;19.354;2022-10-15T01:07:32;73.68;;;58.33;;
56657;SDS011;42530;52.240;19.354;2022-10-15T01:09:58;73.78;;;55.90;;
56657;SDS011;42530;52.240;19.354;2022-10-15T01:18:09;66.47;;;55.95;;
56657;SDS011;42530;52.240;19.354;2022-10-15T01:20:47;66.90;;;56.22;;
56657;SDS011;42530;52.240;19.354;2022-10-15T01:26:19;79.32;;;56.28;;
56657;SDS011;42530;52.240;19.354;2022-10-15T01:31:44;61.73;;;52.63;;
56657;SDS011;42530;52.240;19.354;2022-10-15T01:34:47;71.72;;;57.95;;
56657;SDS011;42530;52.240;19.354;2022-10-15T01:37:36;60.97;;;53.70;;
56657;SDS011;42530;52.240;19.354;2022-10-15T01:40:12;67.15;;;53.45;;
56657;SDS011;42530;52.240;19.354;2022-10-15T01:43:03;73.40;;;55.42;;
56657;SDS011;42530;52.240;19.354;2022-10-15T01:45:41;65.97;;;55.38;;
56657;SDS011;42530;52.240;19.354;2022-10-15T01:48:12;62.55;;;55.33;;
56657;SDS011;42530;52.240;19.354;2022-10-15T01:50:43;68.10;;;57.15;;
56657;SDS011;42530;52.240;19.354;2022-10-15T01:53:13;62.40;;;54.30;;
56657;SDS011;42530;52.240;19.354;2022-10-15T01:55:41;67.93;;;56.58;;
56657;SDS011;42530;52.240;19.354;2022-10-15T01:58:10;69.80;;;52.13;;
56657;SDS011;42530;52.240;19.354;2022-10-15T02:00:39;58.53;;;52.15;;
56657;SDS011;42530;52.240;19.354;2022-10-15T02:03:07;63.00;;;54.65;;
56657;SDS011;42530;52.240;19.354;2022-10-15T02:05:35;63.75;;;53.88;;
56657;SDS011;42530;52.240;19.354;2022-10-15T02:10:46;61.08;;;53.90;;
56657;SDS011;42530;52.240;19.354;2022-10-15T02:18:35;66.65;;;54.92;;
56657;SDS011;42530;52.240;19.354;2022-10-15T02:23:46;67.00;;;52.80;;
56657;SDS011;42530;52.240;19.354;2022-10-15T02:26:17;63.30;;;51.83;;
56657;SDS011;42530;52.240;19.354;2022-10-15T02:28:47;64.38;;;53.35;;
56657;SDS011;42530;52.240;19.354;2022-10-15T02:31:17;75.95;;;54.97;;
56657;SDS011;42530;52.240;19.354;2022-10-15T02:33:47;68.13;;;56.28;;
56657;SDS011;42530;52.240;19.354;2022-10-15T02:36:14;65.07;;;55.85;;
56657;SDS011;42530;52.240;19.354;2022-10-15T02:38:41;62.67;;;53.00;;
56657;SDS011;42530;52.240;19.354;2022-10-15T02:41:09;61.88;;;54.13;;
56657;SDS011;42530;52.240;19.354;2022-10-15T02:43:36;73.40;;;56.25;;
56657;SDS011;42530;52.240;19.354;2022-10-15T02:46:03;68.57;;;57.20;;
56657;SDS011;42530;52.240;19.354;2022-10-15T02:48:29;68.95;;;54.72;;
56657;SDS011;42530;52.240;19.354;2022-10-15T02:50:55;60.72;;;52.45;;
56657;SDS011;42530;52.240;19.354;2022-10-15T02:53:20;64.93;;;56.13;;
56657;SDS011;42530;52.240;19.354;2022-10-15T02:55:46;62.83;;;53.67;;
56657;SDS011;42530;52.240;19.354;2022-10-15T02:58:11;65.85;;;53.80;;
56657;SDS011;42530;52.240;19.354;2022-10-15T03:00:37;67.68;;;53.83;;
56657;SDS011;42530;52.240;19.354;2022-10-15T03:03:03;64.47;;;51.17;;
56657;SDS011;42530;52.240;19.354;2022-10-15T03:05:28;60.88;;;54.25;;
56657;SDS011;42530;52.240;19.354;2022-10-15T03:07:54;59.13;;;52.25;;
56657;SDS011;42530;52.240;19.354;2022-10-15T03:10:19;65.25;;;54.58;;
56657;SDS011;42530;52.240;19.354;2022-10-15T03:12:45;68.43;;;52.80;;
56657;SDS011;42530;52.240;19.354;2022-10-15T03:15:10;69.40;;;55.08;;
56657;SDS011;42530;52.240;19.354;2022-10-15T03:17:36;56.28;;;49.97;;
56657;SDS011;42530;52.240;19.354;2022-10-15T03:20:02;59.25;;;52.25;;
56657;SDS011;42530;52.240;19.354;2022-10-15T03:22:28;66.13;;;54.03;;
56657;SDS011;42530;52.240;19.354;2022-10-15T03:24:54;61.60;;;51.92;;
56657;SDS011;42530;52.240;19.354;2022-10-15T03:27:19;60.75;;;52.30;;
56657;SDS011;42530;52.240;19.354;2022-10-15T03:29:45;60.65;;;51.33;;
56657;SDS011;42530;52.240;19.354;2022-10-15T03:32:10;57.97;;;50.03;;
56657;SDS011;42530;52.240;19.354;2022-10-15T03:34:36;70.43;;;52.92;;
56657;SDS011;42530;52.240;19.354;2022-10-15T03:37:01;66.45;;;51.25;;
56657;SDS011;42530;52.240;19.354;2022-10-15T03:39:27;65.40;;;53.78;;
56657;SDS011;42530;52.240;19.354;2022-10-15T03:41:52;62.08;;;51.50;;
56657;SDS011;42530;52.240;19.354;2022-10-15T03:44:18;67.43;;;54.00;;
56657;SDS011;42530;52.240;19.354;2022-10-15T03:46:44;58.08;;;50.22;;
56657;SDS011;42530;52.240;19.354;2022-10-15T03:49:09;66.70;;;52.50;;
56657;SDS011;42530;52.240;19.354;2022-10-15T03:51:36;65.75;;;57.33;;
56657;SDS011;42530;52.240;19.354;2022-10-15T03:54:01;63.95;;;52.70;;
56657;SDS011;42530;52.240;19.354;2022-10-15T03:56:27;62.42;;;52.80;;
56657;SDS011;42530;52.240;19.354;2022-10-15T03:58:52;60.75;;;52.95;;
56657;SDS011;42530;52.240;19.354;2022-10-15T04:01:18;62.35;;;55.58;;
56657;SDS011;42530;52.240;19.354;2022-10-15T04:03:44;63.85;;;54.28;;
56657;SDS011;42530;52.240;19.354;2022-10-15T04:06:10;61.35;;;54.13;;
56657;SDS011;42530;52.240;19.354;2022-10-15T04:08:35;69.18;;;58.30;;
56657;SDS011;42530;52.240;19.354;2022-10-15T04:11:01;64.78;;;56.08;;
56657;SDS011;42530;52.240;19.354;2022-10-15T04:13:27;66.25;;;56.78;;
56657;SDS011;42530;52.240;19.354;2022-10-15T04:15:53;66.75;;;54.28;;
56657;SDS011;42530;52.240;19.354;2022-10-15T04:18:19;70.20;;;58.38;;
56657;SDS011;42530;52.240;19.354;2022-10-15T04:20:46;67.18;;;57.75;;
56657;SDS011;42530;52.240;19.354;2022-10-15T04:23:12;69.15;;;56.97;;
56657;SDS011;42530;52.240;19.354;2022-10-15T04:25:38;63.28;;;52.08;;
56657;SDS011;42530;52.240;19.354;2022-10-15T04:28:04;73.50;;;56.58;;
56657;SDS011;42530;52.240;19.354;2022-10-15T04:30:30;68.95;;;56.83;;
56657;SDS011;42530;52.240;19.354;2022-10-15T04:32:56;82.47;;;58.22;;
56657;SDS011;42530;52.240;19.354;2022-10-15T04:35:21;78.13;;;61.83;;
56657;SDS011;42530;52.240;19.354;2022-10-15T04:37:47;66.68;;;59.55;;
56657;SDS011;42530;52.240;19.354;2022-10-15T04:40:12;76.97;;;58.35;;
56657;SDS011;42530;52.240;19.354;2022-10-15T04:42:38;71.88;;;58.28;;
56657;SDS011;42530;52.240;19.354;2022-10-15T04:45:04;73.05;;;56.85;;
56657;SDS011;42530;52.240;19.354;2022-10-15T04:47:31;70.10;;;58.35;;
56657;SDS011;42530;52.240;19.354;2022-10-15T04:49:57;71.47;;;59.08;;
56657;SDS011;42530;52.240;19.354;2022-10-15T04:52:22;67.10;;;53.95;;
56657;SDS011;42530;52.240;19.354;2022-10-15T04:54:48;66.47;;;55.90;;
56657;SDS011;42530;52.240;19.354;2022-10-15T04:57:14;64.22;;;56.95;;
56657;SDS011;42530;52.240;19.354;2022-10-15T04:59:40;64.95;;;57.90;;
56657;SDS011;42530;52.240;19.354;2022-10-15T05:02:06;78.50;;;58.42;;
56657;SDS011;42530;52.240;19.354;2022-10-15T05:04:32;66.70;;;59.65;;
56657;SDS011;42530;52.240;19.354;2022-10-15T05:06:57;78.32;;;65.10;;
56657;SDS011;42530;52.240;19.354;2022-10-15T05:09:23;81.03;;;63.90;;
56657;SDS011;42530;52.240;19.354;2022-10-15T05:11:48;71.68;;;58.30;;
56657;SDS011;42530;52.240;19.354;2022-10-15T05:14:14;70.32;;;58.40;;
56657;SDS011;42530;52.240;19.354;2022-10-15T05:16:39;73.75;;;62.00;;
56657;SDS011;42530;52.240;19.354;2022-10-15T05:19:06;71.50;;;60.97;;
56657;SDS011;42530;52.240;19.354;2022-10-15T05:21:33;77.75;;;63.90;;
56657;SDS011;42530;52.240;19.354;2022-10-15T05:23:59;81.57;;;67.93;;
56657;SDS011;42530;52.240;19.354;2022-10-15T05:26:25;69.40;;;60.85;;
56657;SDS011;42530;52.240;19.354;2022-10-15T05:28:54;69.88;;;58.15;;
56657;SDS011;42530;52.240;19.354;2022-10-15T05:31:21;72.13;;;60.28;;
56657;SDS011;42530;52.240;19.354;2022-10-15T05:33:49;73.30;;;60.15;;
56657;SDS011;42530;52.240;19.354;2022-10-15T05:36:17;73.38;;;61.25;;
56657;SDS011;42530;52.240;19.354;2022-10-15T05:38:53;72.03;;;55.72;;
56657;SDS011;42530;52.240;19.354;2022-10-15T05:41:20;73.45;;;65.38;;
56657;SDS011;42530;52.240;19.354;2022-10-15T05:43:46;72.47;;;61.45;;
56657;SDS011;42530;52.240;19.354;2022-10-15T05:46:13;72.80;;;63.25;;
56657;SDS011;42530;52.240;19.354;2022-10-15T05:48:39;70.65;;;60.72;;
56657;SDS011;42530;52.240;19.354;2022-10-15T05:51:06;66.35;;;53.92;;
56657;SDS011;42530;52.240;19.354;2022-10-15T05:53:34;66.28;;;57.85;;
56657;SDS011;42530;52.240;19.354;2022-10-15T05:56:00;67.05;;;54.63;;
56657;SDS011;42530;52.240;19.354;2022-10-15T05:58:26;63.67;;;54.78;;
56657;SDS011;42530;52.240;19.354;2022-10-15T06:00:57;62.17;;;52.75;;
56657;SDS011;42530;52.240;19.354;2022-10-15T06:03:24;64.88;;;54.42;;
56657;SDS011;42530;52.240;19.354;2022-10-15T06:05:51;61.30;;;52.03;;
56657;SDS011;42530;52.240;19.354;2022-10-15T06:08:17;62.42;;;52.30;;
56657;SDS011;42530;52.240;19.354;2022-10-15T06:10:44;61.08;;;51.78;;
56657;SDS011;42530;52.240;19.354;2022-10-15T06:13:10;59.78;;;49.90;;
56657;SDS011;42530;52.240;19.354;2022-10-15T06:15:44;61.85;;;47.25;;
56657;SDS011;42530;52.240;19.354;2022-10-15T06:18:10;55.95;;;48.90;;
56657;SDS011;42530;52.240;19.354;2022-10-15T06:20:40;62.03;;;47.58;;
56657;SDS011;42530;52.240;19.354;2022-10-15T06:23:06;51.83;;;44.97;;
56657;SDS011;42530;52.240;19.354;2022-10-15T06:25:34;61.50;;;49.08;;
56657;SDS011;42530;52.240;19.354;2022-10-15T06:28:03;57.72;;;47.13;;
56657;SDS011;42530;52.240;19.354;2022-10-15T06:30:30;58.97;;;47.90;;
56657;SDS011;42530;52.240;19.354;2022-10-15T06:32:56;56.70;;;47.95;;
56657;SDS011;42530;52.240;19.354;2022-10-15T06:35:22;56.30;;;46.67;;
56657;SDS011;42530;52.240;19.354;2022-10-15T06:37:49;55.30;;;46.10;;
56657;SDS011;42530;52.240;19.354;2022-10-15T06:40:15;50.67;;;45.25;;
56657;SDS011;42530;52.240;19.354;2022-10-15T06:42:43;47.30;;;41.10;;
56657;SDS011;42530;52.240;19.354;2022-10-15T06:45:09;45.70;;;40.85;;
56657;SDS011;42530;52.240;19.354;2022-10-15T06:47:35;44.63;;;39.38;;
56657;SDS011;42530;52.240;19.354;2022-10-15T06:50:02;49.63;;;40.15;;
56657;SDS011;42530;52.240;19.354;2022-10-15T06:52:30;46.08;;;39.25;;
56657;SDS011;42530;52.240;19.354;2022-10-15T06:54:55;53.25;;;37.80;;
56657;SDS011;42530;52.240;19.354;2022-10-15T06:57:21;43.78;;;37.10;;
56657;SDS011;42530;52.240;19.354;2022-10-15T06:59:49;43.55;;;36.33;;
56657;SDS011;42530;52.240;19.354;2022-10-15T07:02:15;46.75;;;34.75;;
56657;SDS011;42530;52.240;19.354;2022-10-15T07:04:41;42.55;;;35.00;;
56657;SDS011;42530;52.240;19.354;2022-10-15T07:07:07;41.33;;;34.20;;
56657;SDS011;42530;52.240;19.354;2022-10-15T07:09:33;45.08;;;36.80;;
56657;SDS011;42530;52.240;19.354;2022-10-15T07:11:59;41.70;;;34.65;;
56657;SDS011;42530;52.240;19.354;2022-10-15T07:14:25;37.85;;;33.35;;
56657;SDS011;42530;52.240;19.354;2022-10-15T07:16:50;43.33;;;35.88;;
56657;SDS011;42530;52.240;19.354;2022-10-15T07:19:16;39.95;;;33.53;;
56657;SDS011;42530;52.240;19.354;2022-10-15T07:21:42;44.92;;;33.25;;
56657;SDS011;42530;52.240;19.354;2022-10-15T07:24:07;50.58;;;36.35;;
56657;SDS011;42530;52.240;19.354;2022-10-15T07:26:33;41.67;;;33.83;;
56657;SDS011;42530;52.240;19.354;2022-10-15T07:28:59;43.55;;;37.88;;
56657;SDS011;42530;52.240;19.354;2022-10-15T07:31:24;45.42;;;34.95;;
56657;SDS011;42530;52.240;19.354;2022-10-15T07:33:50;46.17;;;38.97;;
56657;SDS011;42530;52.240;19.354;2022-10-15T07:36:15;48.17;;;37.97;;
56657;SDS011;42530;52.240;19.354;2022-10-15T07:38:41;39.40;;;35.13;;
56657;SDS011;42530;52.240;19.354;2022-10-15T07:41:08;41.38;;;36.95;;
56657;SDS011;42530;52.240;19.354;2022-10-15T07:43:34;40.50;;;33.25;;
56657;SDS011;42530;52.240;19.354;2022-10-15T07:46:01;40.60;;;34.20;;
56657;SDS011;42530;52.240;19.354;2022-10-15T07:48:27;39.42;;;35.45;;
56657;SDS011;42530;52.240;19.354;2022-10-15T07:50:56;40.47;;;33.63;;
56657;SDS011;42530;52.240;19.354;2022-10-15T07:53:26;39.33;;;33.85;;
56657;SDS011;42530;52.240;19.354;2022-10-15T07:55:52;39.50;;;31.42;;
56657;SDS011;42530;52.240;19.354;2022-10-15T07:58:18;38.33;;;34.42;;
56657;SDS011;42530;52.240;19.354;2022-10-15T08:00:43;45.60;;;35.65;;
56657;SDS011;42530;52.240;19.354;2022-10-15T08:03:09;36.42;;;30.13;;
56657;SDS011;42530;52.240;19.354;2022-10-15T08:05:34;38.22;;;33.53;;
56657;SDS011;42530;52.240;19.354;2022-10-15T08:08:00;37.40;;;31.48;;
56657;SDS011;42530;52.240;19.354;2022-10-15T08:10:26;40.85;;;32.65;;
56657;SDS011;42530;52.240;19.354;2022-10-15T08:12:51;37.42;;;29.85;;
56657;SDS011;42530;52.240;19.354;2022-10-15T08:15:17;37.22;;;31.13;;
56657;SDS011;42530;52.240;19.354;2022-10-15T08:17:43;32.42;;;28.95;;
56657;SDS011;42530;52.240;19.354;2022-10-15T08:20:08;35.10;;;29.27;;
56657;SDS011;42530;52.240;19.354;2022-10-15T08:22:34;35.22;;;30.30;;
56657;SDS011;42530;52.240;19.354;2022-10-15T08:25:00;37.35;;;32.38;;
56657;SDS011;42530;52.240;19.354;2022-10-15T08:27:26;35.97;;;27.48;;
56657;SDS011;42530;52.240;19.354;2022-10-15T08:29:51;32.50;;;26.90;;
56657;SDS011;42530;52.240;19.354;2022-10-15T08:32:17;34.38;;;30.73;;
56657;SDS011;42530;52.240;19.354;2022-10-15T08:34:42;31.23;;;28.10;;
56657;SDS011;42530;52.240;19.354;2022-10-15T08:37:08;28.73;;;25.88;;
56657;SDS011;42530;52.240;19.354;2022-10-15T08:39:33;28.45;;;25.40;;
56657;SDS011;42530;52.240;19.354;2022-10-15T08:42:06;30.13;;;27.23;;
56657;SDS011;42530;52.240;19.354;2022-10-15T08:44:58;36.47;;;28.15;;
56657;SDS011;42530;52.240;19.354;2022-10-15T08:50:03;28.20;;;24.10;;
56657;SDS011;42530;52.240;19.354;2022-10-15T08:52:41;32.90;;;26.23;;
56657;SDS011;42530;52.240;19.354;2022-10-15T08:55:11;31.42;;;27.48;;
56657;SDS011;42530;52.240;19.354;2022-10-15T09:00:12;27.23;;;24.30;;
56657;SDS011;42530;52.240;19.354;2022-10-15T09:02:41;29.48;;;26.40;;
56657;SDS011;42530;52.240;19.354;2022-10-15T09:08:21;29.58;;;25.92;;
56657;SDS011;42530;52.240;19.354;2022-10-15T09:10:56;31.33;;;28.00;;
56657;SDS011;42530;52.240;19.354;2022-10-15T09:13:38;29.08;;;25.83;;
56657;SDS011;42530;52.240;19.354;2022-10-15T09:18:41;26.75;;;23.58;;
56657;SDS011;42530;52.240;19.354;2022-10-15T09:21:11;28.35;;;25.45;;
56657;SDS011;42530;52.240;19.354;2022-10-15T09:23:38;31.48;;;27.67;;
56657;SDS011;42530;52.240;19.354;2022-10-15T09:29:02;27.67;;;24.88;;
56657;SDS011;42530;52.240;19.354;2022-10-15T09:31:41;27.40;;;24.65;;
56657;SDS011;42530;52.240;19.354;2022-10-15T09:34:18;30.42;;;24.88;;
56657;SDS011;42530;52.240;19.354;2022-10-15T09:36:53;27.65;;;24.85;;
56657;SDS011;42530;52.240;19.354;2022-10-15T09:42:09;24.88;;;22.25;;
56657;SDS011;42530;52.240;19.354;2022-10-15T09:44:49;27.85;;;24.98;;
56657;SDS011;42530;52.240;19.354;2022-10-15T09:47:30;26.95;;;22.55;;
56657;SDS011;42530;52.240;19.354;2022-10-15T09:49:59;28.05;;;23.52;;
56657;SDS011;42530;52.240;19.354;2022-10-15T09:55:19;25.80;;;22.30;;
56657;SDS011;42530;52.240;19.354;2022-10-15T10:03:26;22.92;;;20.65;;
56657;SDS011;42530;52.240;19.354;2022-10-15T10:06:00;24.15;;;21.67;;
56657;SDS011;42530;52.240;19.354;2022-10-15T10:08:31;24.70;;;22.08;;
56657;SDS011;42530;52.240;19.354;2022-10-15T10:11:03;25.23;;;22.48;;
56657;SDS011;42530;52.240;19.354;2022-10-15T10:13:31;28.38;;;22.48;;
56657;SDS011;42530;52.240;19.354;2022-10-15T10:16:03;28.75;;;24.08;;
56657;SDS011;42530;52.240;19.354;2022-10-15T10:18:31;24.17;;;21.17;;
56657;SDS011;42530;52.240;19.354;2022-10-15T10:21:01;29.02;;;26.00;;
56657;SDS011;42530;52.240;19.354;2022-10-15T10:23:29;28.67;;;25.20;;
56657;SDS011;42530;52.240;19.354;2022-10-15T10:25:57;30.52;;;27.27;;
56657;SDS011;42530;52.240;19.354;2022-10-15T10:28:29;27.02;;;24.20;;
56657;SDS011;42530;52.240;19.354;2022-10-15T10:31:00;24.45;;;22.05;;
56657;SDS011;42530;52.240;19.354;2022-10-15T10:33:33;28.15;;;25.20;;
56657;SDS011;42530;52.240;19.354;2022-10-15T10:36:18;29.13;;;25.17;;
56657;SDS011;42530;52.240;19.354;2022-10-15T10:44:31;28.77;;;25.77;;
56657;SDS011;42530;52.240;19.354;2022-10-15T10:47:16;27.80;;;25.05;;
56657;SDS011;42530;52.240;19.354;2022-10-15T10:49:44;27.00;;;24.17;;
56657;SDS011;42530;52.240;19.354;2022-10-15T10:52:31;28.05;;;23.90;;
56657;SDS011;42530;52.240;19.354;2022-10-15T10:57:55;30.58;;;24.23;;
56657;SDS011;42530;52.240;19.354;2022-10-15T11:00:29;25.15;;;22.58;;
56657;SDS011;42530;52.240;19.354;2022-10-15T11:03:22;26.17;;;22.30;;
56657;SDS011;42530;52.240;19.354;2022-10-15T11:06:07;26.75;;;22.15;;
56657;SDS011;42530;52.240;19.354;2022-10-15T11:08:49;25.50;;;22.85;;
56657;SDS011;42530;52.240;19.354;2022-10-15T11:20:44;29.58;;;24.88;;
56657;SDS011;42530;52.240;19.354;2022-10-15T11:29:17;29.48;;;26.42;;
56657;SDS011;42530;52.240;19.354;2022-10-15T11:32:32;27.58;;;24.13;;
56657;SDS011;42530;52.240;19.354;2022-10-15T11:38:23;32.67;;;28.95;;
56657;SDS011;42530;52.240;19.354;2022-10-15T11:41:03;34.40;;;30.10;;
56657;SDS011;42530;52.240;19.354;2022-10-15T11:43:54;37.92;;;29.52;;
56657;SDS011;42530;52.240;19.354;2022-10-15T11:55:16;24.52;;;22.13;;
56657;SDS011;42530;52.240;19.354;2022-10-15T11:57:35;26.65;;;23.77;;
56657;SDS011;42530;52.240;19.354;2022-10-15T12:02:41;27.33;;;24.60;;
56657;SDS011;42530;52.240;19.354;2022-10-15T12:05:09;31.02;;;27.75;;
56657;SDS011;42530;52.240;19.354;2022-10-15T12:07:45;29.35;;;26.65;;
56657;SDS011;42530;52.240;19.354;2022-10-15T12:10:20;28.92;;;26.00;;
56657;SDS011;42530;52.240;19.354;2022-10-15T12:13:04;31.80;;;28.52;;
56657;SDS011;42530;52.240;19.354;2022-10-15T12:20:58;28.45;;;25.48;;
56657;SDS011;42530;52.240;19.354;2022-10-15T12:23:25;31.88;;;28.67;;
56657;SDS011;42530;52.240;19.354;2022-10-15T12:26:26;28.98;;;25.88;;
56657;SDS011;42530;52.240;19.354;2022-10-15T12:28:58;32.13;;;28.98;;
56657;SDS011;42530;52.240;19.354;2022-10-15T12:31:40;30.13;;;26.92;;
56657;SDS011;42530;52.240;19.354;2022-10-15T12:34:19;32.08;;;26.38;;
56657;SDS011;42530;52.240;19.354;2022-10-15T12:37:01;33.80;;;30.30;;
56657;SDS011;42530;52.240;19.354;2022-10-15T12:39:29;31.63;;;28.40;;
56657;SDS011;42530;52.240;19.354;2022-10-15T12:41:55;30.35;;;27.20;;
56657;SDS011;42530;52.240;19.354;2022-10-15T12:46:47;28.40;;;25.70;;
56657;SDS011;42530;52.240;19.354;2022-10-15T12:51:51;30.98;;;27.15;;
56657;SDS011;42530;52.240;19.354;2022-10-15T12:59:54;27.45;;;24.75;;
56657;SDS011;42530;52.240;19.354;2022-10-15T13:02:30;29.38;;;26.48;;
56657;SDS011;42530;52.240;19.354;2022-10-15T13:05:00;31.80;;;28.70;;
56657;SDS011;42530;52.240;19.354;2022-10-15T13:07:26;29.65;;;26.63;;
56657;SDS011;42530;52.240;19.354;2022-10-15T13:09:52;32.80;;;29.52;;
56657;SDS011;42530;52.240;19.354;2022-10-15T13:12:22;32.90;;;29.23;;
56657;SDS011;42530;52.240;19.354;2022-10-15T13:14:52;32.20;;;29.05;;
56657;SDS011;42530;52.240;19.354;2022-10-15T13:17:21;29.98;;;26.77;;
56657;SDS011;42530;52.240;19.354;2022-10-15T13:19:55;32.33;;;28.95;;
56657;SDS011;42530;52.240;19.354;2022-10-15T13:22:30;34.08;;;30.38;;
56657;SDS011;42530;52.240;19.354;2022-10-15T13:24:57;31.00;;;27.92;;
56657;SDS011;42530;52.240;19.354;2022-10-15T13:27:30;30.42;;;26.98;;
56657;SDS011;42530;52.240;19.354;2022-10-15T13:29:58;31.57;;;28.37;;
56657;SDS011;42530;52.240;19.354;2022-10-15T13:32:31;38.80;;;31.80;;
56657;SDS011;42530;52.240;19.354;2022-10-15T13:35:01;39.75;;;35.47;;
56657;SDS011;42530;52.240;19.354;2022-10-15T13:37:34;41.20;;;36.83;;
56657;SDS011;42530;52.240;19.354;2022-10-15T13:40:03;35.05;;;31.27;;
56657;SDS011;42530;52.240;19.354;2022-10-15T13:42:29;38.22;;;34.50;;
56657;SDS011;42530;52.240;19.354;2022-10-15T13:45:15;36.95;;;33.55;;
56657;SDS011;42530;52.240;19.354;2022-10-15T13:47:46;39.13;;;35.30;;
56657;SDS011;42530;52.240;19.354;2022-10-15T13:50:28;41.00;;;36.58;;
56657;SDS011;42530;52.240;19.354;2022-10-15T13:55:44;41.40;;;37.47;;
56657;SDS011;42530;52.240;19.354;2022-10-15T14:03:45;42.88;;;38.78;;
56657;SDS011;42530;52.240;19.354;2022-10-15T14:08:44;45.35;;;40.08;;
56657;SDS011;42530;52.240;19.354;2022-10-15T14:11:12;42.60;;;38.20;;
56657;SDS011;42530;52.240;19.354;2022-10-15T14:13:45;43.05;;;38.35;;
56657;SDS011;42530;52.240;19.354;2022-10-15T14:16:35;46.13;;;39.20;;
56657;SDS011;42530;52.240;19.354;2022-10-15T14:21:32;42.92;;;38.63;;
56657;SDS011;42530;52.240;19.354;2022-10-15T14:26:36;43.15;;;38.65;;
56657;SDS011;42530;52.240;19.354;2022-10-15T14:29:03;43.22;;;39.13;;
56657;SDS011;42530;52.240;19.354;2022-10-15T14:31:31;45.05;;;39.83;;
56657;SDS011;42530;52.240;19.354;2022-10-15T14:34:02;47.05;;;41.95;;
56657;SDS011;42530;52.240;19.354;2022-10-15T14:36:29;45.25;;;40.80;;
56657;SDS011;42530;52.240;19.354;2022-10-15T14:39:17;46.13;;;41.25;;
56657;SDS011;42530;52.240;19.354;2022-10-15T14:42:01;45.28;;;40.72;;
56657;SDS011;42530;52.240;19.354;2022-10-15T14:44:47;42.22;;;37.25;;
56657;SDS011;42530;52.240;19.354;2022-10-15T14:47:25;46.20;;;41.47;;
56657;SDS011;42530;52.240;19.354;2022-10-15T14:49:55;47.08;;;42.78;;
56657;SDS011;42530;52.240;19.354;2022-10-15T14:52:24;44.83;;;40.60;;
56657;SDS011;42530;52.240;19.354;2022-10-15T14:57:40;45.97;;;41.33;;
56657;SDS011;42530;52.240;19.354;2022-10-15T15:02:49;45.88;;;41.33;;
56657;SDS011;42530;52.240;19.354;2022-10-15T15:05:17;44.85;;;40.33;;
56657;SDS011;42530;52.240;19.354;2022-10-15T15:07:46;44.75;;;40.20;;
56657;SDS011;42530;52.240;19.354;2022-10-15T15:10:12;44.60;;;40.05;;
56657;SDS011;42530;52.240;19.354;2022-10-15T15:12:38;42.88;;;38.22;;
56657;SDS011;42530;52.240;19.354;2022-10-15T15:15:17;40.40;;;36.50;;
56657;SDS011;42530;52.240;19.354;2022-10-15T15:17:44;40.22;;;36.15;;
56657;SDS011;42530;52.240;19.354;2022-10-15T15:20:10;42.42;;;37.92;;
56657;SDS011;42530;52.240;19.354;2022-10-15T15:22:36;39.42;;;35.25;;
56657;SDS011;42530;52.240;19.354;2022-10-15T15:25:45;41.90;;;37.45;;
56657;SDS011;42530;52.240;19.354;2022-10-15T15:27:54;39.90;;;35.90;;
56657;SDS011;42530;52.240;19.354;2022-10-15T15:30:22;40.10;;;36.03;;
56657;SDS011;42530;52.240;19.354;2022-10-15T15:32:50;39.67;;;34.95;;
56657;SDS011;42530;52.240;19.354;2022-10-15T15:38:23;40.60;;;35.92;;
56657;SDS011;42530;52.240;19.354;2022-10-15T15:40:58;40.20;;;36.10;;
56657;SDS011;42530;52.240;19.354;2022-10-15T15:43:26;36.40;;;32.70;;
56657;SDS011;42530;52.240;19.354;2022-10-15T15:45:51;43.80;;;34.10;;
56657;SDS011;42530;52.240;19.354;2022-10-15T15:48:17;40.13;;;33.28;;
56657;SDS011;42530;52.240;19.354;2022-10-15T16:12:45;43.03;;;38.40;;
56657;SDS011;42530;52.240;19.354;2022-10-15T16:15:11;41.15;;;35.83;;
56657;SDS011;42530;52.240;19.354;2022-10-15T16:17:36;41.78;;;34.67;;
56657;SDS011;42530;52.240;19.354;2022-10-15T16:20:03;38.53;;;34.50;;
56657;SDS011;42530;52.240;19.354;2022-10-15T16:22:29;42.25;;;37.17;;
56657;SDS011;42530;52.240;19.354;2022-10-15T16:24:55;37.17;;;33.42;;
56657;SDS011;42530;52.240;19.354;2022-10-15T16:27:20;40.67;;;35.00;;
56657;SDS011;42530;52.240;19.354;2022-10-15T16:29:46;37.72;;;34.05;;
56657;SDS011;42530;52.240;19.354;2022-10-15T16:32:11;39.28;;;35.10;;
56657;SDS011;42530;52.240;19.354;2022-10-15T16:34:37;37.40;;;33.40;;
56657;SDS011;42530;52.240;19.354;2022-10-15T16:37:02;38.85;;;35.22;;
56657;SDS011;42530;52.240;19.354;2022-10-15T16:39:28;37.15;;;33.33;;
56657;SDS011;42530;52.240;19.354;2022-10-15T16:41:54;40.85;;;36.38;;
56657;SDS011;42530;52.240;19.354;2022-10-15T16:44:20;39.47;;;35.42;;
56657;SDS011;42530;52.240;19.354;2022-10-15T16:46:45;41.70;;;36.85;;
56657;SDS011;42530;52.240;19.354;2022-10-15T16:49:11;39.20;;;35.08;;
56657;SDS011;42530;52.240;19.354;2022-10-15T16:51:37;38.40;;;34.20;;
56657;SDS011;42530;52.240;19.354;2022-10-15T16:54:02;39.17;;;35.03;;